sensor_id;sensor_type;location;lat;lon;timestamp;temperature;humidity
23671;DHT22;12012;51.998;7.614;2023-01-10T00:01:50;5.80;99.90
23671;DHT22;12012;51.998;7.614;2023-01-10T00:04:15;5.90;99.90
23671;DHT22;12012;51.998;7.614;2023-01-10T00:06:41;5.90;99.90
23671;DHT22;12012;51.998;7.614;2023-01-10T00:09:06;5.90;99.90
23671;DHT22;12012;51.998;7.614;2023-01-10T00:11:32;6.00;99.90
23671;DHT22;12012;51.998;7.614;2023-01-10T00:14:16;6.00;99.90
23671;DHT22;12012;51.998;7.614;2023-01-10T00:16:41;6.00;99.90
23671;DHT22;12012;51.998;7.614;2023-01-10T00:19:08;6.00;99.90
23671;DHT22;12012;51.998;7.614;2023-01-10T00:21:35;6.10;99.90
23671;DHT22;12012;51.998;7.614;2023-01-10T00:24:01;6.10;99.90
23671;DHT22;12012;51.998;7.614;2023-01-10T00:26:40;6.10;99.90
23671;DHT22;12012;51.998;7.614;2023-01-10T00:29:06;6.10;99.90
23671;DHT22;12012;51.998;7.614;2023-01-10T00:31:32;6.10;99.90
23671;DHT22;12012;51.998;7.614;2023-01-10T00:33:57;6.10;99.90
23671;DHT22;12012;51.998;7.614;2023-01-10T00:36:23;6.10;99.90
23671;DHT22;12012;51.998;7.614;2023-01-10T00:38:49;6.10;99.90
23671;DHT22;12012;51.998;7.614;2023-01-10T00:41:14;6.10;99.90
23671;DHT22;12012;51.998;7.614;2023-01-10T00:43:59;6.20;99.90
23671;DHT22;12012;51.998;7.614;2023-01-10T00:46:25;6.20;99.90
23671;DHT22;12012;51.998;7.614;2023-01-10T00:48:51;6.20;99.90
23671;DHT22;12012;51.998;7.614;2023-01-10T00:51:17;6.20;99.90
23671;DHT22;12012;51.998;7.614;2023-01-10T00:53:43;6.20;99.90
23671;DHT22;12012;51.998;7.614;2023-01-10T00:56:08;6.20;99.90
23671;DHT22;12012;51.998;7.614;2023-01-10T00:58:34;6.20;99.90
23671;DHT22;12012;51.998;7.614;2023-01-10T01:01:00;6.10;99.90
23671;DHT22;12012;51.998;7.614;2023-01-10T01:03:25;6.10;99.90
23671;DHT22;12012;51.998;7.614;2023-01-10T01:05:51;6.10;99.90
23671;DHT22;12012;51.998;7.614;2023-01-10T01:08:18;6.00;99.90
23671;DHT22;12012;51.998;7.614;2023-01-10T01:10:43;6.00;99.90
23671;DHT22;12012;51.998;7.614;2023-01-10T01:13:20;5.90;99.90
23671;DHT22;12012;51.998;7.614;2023-01-10T01:15:46;5.90;99.90
23671;DHT22;12012;51.998;7.614;2023-01-10T01:18:15;5.80;99.90
23671;DHT22;12012;51.998;7.614;2023-01-10T01:20:41;5.80;99.90
23671;DHT22;12012;51.998;7.614;2023-01-10T01:23:07;5.80;99.90
23671;DHT22;12012;51.998;7.614;2023-01-10T01:25:33;5.70;99.90
23671;DHT22;12012;51.998;7.614;2023-01-10T01:27:58;5.70;99.90
23671;DHT22;12012;51.998;7.614;2023-01-10T01:30:24;5.70;99.90
23671;DHT22;12012;51.998;7.614;2023-01-10T01:32:50;5.60;99.90
23671;DHT22;12012;51.998;7.614;2023-01-10T01:35:16;5.60;99.90
23671;DHT22;12012;51.998;7.614;2023-01-10T01:37:42;5.60;99.90
23671;DHT22;12012;51.998;7.614;2023-01-10T01:40:16;5.60;99.90
23671;DHT22;12012;51.998;7.614;2023-01-10T01:42:43;5.60;99.90
23671;DHT22;12012;51.998;7.614;2023-01-10T01:47:44;5.60;99.90
23671;DHT22;12012;51.998;7.614;2023-01-10T01:50:25;5.60;99.90
23671;DHT22;12012;51.998;7.614;2023-01-10T01:52:55;5.60;99.90
23671;DHT22;12012;51.998;7.614;2023-01-10T01:55:23;5.50;99.90
23671;DHT22;12012;51.998;7.614;2023-01-10T01:57:53;5.50;99.90
23671;DHT22;12012;51.998;7.614;2023-01-10T02:00:20;5.50;99.90
23671;DHT22;12012;51.998;7.614;2023-01-10T02:02:50;5.50;99.90
23671;DHT22;12012;51.998;7.614;2023-01-10T02:05:18;5.50;99.90
23671;DHT22;12012;51.998;7.614;2023-01-10T02:07:53;5.50;99.90
23671;DHT22;12012;51.998;7.614;2023-01-10T02:13:07;5.60;99.90
23671;DHT22;12012;51.998;7.614;2023-01-10T02:15:34;5.60;99.90
23671;DHT22;12012;51.998;7.614;2023-01-10T02:18:01;5.60;99.90
23671;DHT22;12012;51.998;7.614;2023-01-10T02:20:27;5.60;99.90
23671;DHT22;12012;51.998;7.614;2023-01-10T02:28:56;5.60;99.90
23671;DHT22;12012;51.998;7.614;2023-01-10T02:34:34;5.60;99.90
23671;DHT22;12012;51.998;7.614;2023-01-10T02:37:31;5.50;99.90
23671;DHT22;12012;51.998;7.614;2023-01-10T02:45:26;5.60;99.90
23671;DHT22;12012;51.998;7.614;2023-01-10T02:47:55;5.60;99.90
23671;DHT22;12012;51.998;7.614;2023-01-10T02:53:07;5.60;99.90
23671;DHT22;12012;51.998;7.614;2023-01-10T03:01:31;5.50;99.80
23671;DHT22;12012;51.998;7.614;2023-01-10T03:04:08;5.40;99.70
23671;DHT22;12012;51.998;7.614;2023-01-10T03:10:16;5.40;99.90
23671;DHT22;12012;51.998;7.614;2023-01-10T03:15:18;5.30;99.90
23671;DHT22;12012;51.998;7.614;2023-01-10T03:17:48;5.20;99.90
23671;DHT22;12012;51.998;7.614;2023-01-10T03:20:16;5.20;99.90
23671;DHT22;12012;51.998;7.614;2023-01-10T03:22:44;5.20;99.90
23671;DHT22;12012;51.998;7.614;2023-01-10T03:25:13;5.20;99.90
23671;DHT22;12012;51.998;7.614;2023-01-10T03:27:51;5.20;99.90
23671;DHT22;12012;51.998;7.614;2023-01-10T03:33:06;5.10;99.90
23671;DHT22;12012;51.998;7.614;2023-01-10T03:36:03;5.10;99.90
23671;DHT22;12012;51.998;7.614;2023-01-10T03:41:15;5.20;99.90
23671;DHT22;12012;51.998;7.614;2023-01-10T03:43:50;5.20;99.90
23671;DHT22;12012;51.998;7.614;2023-01-10T03:46:43;5.20;99.90
23671;DHT22;12012;51.998;7.614;2023-01-10T03:49:12;5.10;99.90
23671;DHT22;12012;51.998;7.614;2023-01-10T03:51:39;5.10;99.90
23671;DHT22;12012;51.998;7.614;2023-01-10T03:54:06;5.10;99.90
23671;DHT22;12012;51.998;7.614;2023-01-10T03:56:43;5.10;99.90
23671;DHT22;12012;51.998;7.614;2023-01-10T03:59:09;5.10;99.90
23671;DHT22;12012;51.998;7.614;2023-01-10T04:01:35;5.10;99.90
23671;DHT22;12012;51.998;7.614;2023-01-10T04:04:00;5.10;99.90
23671;DHT22;12012;51.998;7.614;2023-01-10T04:06:26;5.10;99.90
23671;DHT22;12012;51.998;7.614;2023-01-10T04:08:52;5.20;99.90
23671;DHT22;12012;51.998;7.614;2023-01-10T04:11:17;5.10;99.90
23671;DHT22;12012;51.998;7.614;2023-01-10T04:13:43;5.10;99.90
23671;DHT22;12012;51.998;7.614;2023-01-10T04:16:08;5.10;99.90
23671;DHT22;12012;51.998;7.614;2023-01-10T04:18:34;5.10;99.90
23671;DHT22;12012;51.998;7.614;2023-01-10T04:20:59;5.10;99.90
23671;DHT22;12012;51.998;7.614;2023-01-10T04:23:25;5.10;99.90
23671;DHT22;12012;51.998;7.614;2023-01-10T04:25:50;5.10;99.90
23671;DHT22;12012;51.998;7.614;2023-01-10T04:28:16;5.10;99.90
23671;DHT22;12012;51.998;7.614;2023-01-10T04:30:41;5.10;99.90
23671;DHT22;12012;51.998;7.614;2023-01-10T04:33:07;5.10;99.90
23671;DHT22;12012;51.998;7.614;2023-01-10T04:35:34;5.10;99.90
23671;DHT22;12012;51.998;7.614;2023-01-10T04:38:00;5.10;99.90
23671;DHT22;12012;51.998;7.614;2023-01-10T04:40:25;5.10;99.90
23671;DHT22;12012;51.998;7.614;2023-01-10T04:42:51;5.10;99.90
23671;DHT22;12012;51.998;7.614;2023-01-10T04:45:16;5.10;99.90
23671;DHT22;12012;51.998;7.614;2023-01-10T04:47:51;5.10;99.90
23671;DHT22;12012;51.998;7.614;2023-01-10T04:50:26;5.10;99.90
23671;DHT22;12012;51.998;7.614;2023-01-10T04:52:52;5.10;99.90
23671;DHT22;12012;51.998;7.614;2023-01-10T04:55:18;5.10;99.90
23671;DHT22;12012;51.998;7.614;2023-01-10T04:57:43;5.00;99.90
23671;DHT22;12012;51.998;7.614;2023-01-10T05:00:10;5.00;99.90
23671;DHT22;12012;51.998;7.614;2023-01-10T05:02:37;5.00;99.90
23671;DHT22;12012;51.998;7.614;2023-01-10T05:05:09;5.00;99.90
23671;DHT22;12012;51.998;7.614;2023-01-10T05:07:35;5.00;99.90
23671;DHT22;12012;51.998;7.614;2023-01-10T05:10:02;5.00;99.90
23671;DHT22;12012;51.998;7.614;2023-01-10T05:12:27;5.00;99.90
23671;DHT22;12012;51.998;7.614;2023-01-10T05:14:53;5.00;99.90
23671;DHT22;12012;51.998;7.614;2023-01-10T05:17:19;5.00;99.90
23671;DHT22;12012;51.998;7.614;2023-01-10T05:19:44;5.00;99.90
23671;DHT22;12012;51.998;7.614;2023-01-10T05:22:10;4.90;99.90
23671;DHT22;12012;51.998;7.614;2023-01-10T05:24:36;5.00;99.90
23671;DHT22;12012;51.998;7.614;2023-01-10T05:27:02;5.00;99.90
23671;DHT22;12012;51.998;7.614;2023-01-10T05:29:27;5.00;99.90
23671;DHT22;12012;51.998;7.614;2023-01-10T05:31:53;5.00;99.90
23671;DHT22;12012;51.998;7.614;2023-01-10T05:34:19;5.10;99.90
23671;DHT22;12012;51.998;7.614;2023-01-10T05:36:45;5.10;99.90
23671;DHT22;12012;51.998;7.614;2023-01-10T05:39:10;5.10;99.90
23671;DHT22;12012;51.998;7.614;2023-01-10T05:41:37;5.10;99.90
23671;DHT22;12012;51.998;7.614;2023-01-10T05:44:03;5.10;99.90
23671;DHT22;12012;51.998;7.614;2023-01-10T05:46:28;5.10;99.90
23671;DHT22;12012;51.998;7.614;2023-01-10T05:48:54;5.10;99.90
23671;DHT22;12012;51.998;7.614;2023-01-10T05:51:19;5.10;99.90
23671;DHT22;12012;51.998;7.614;2023-01-10T05:53:45;5.00;99.90
23671;DHT22;12012;51.998;7.614;2023-01-10T05:56:10;5.00;99.90
23671;DHT22;12012;51.998;7.614;2023-01-10T05:58:36;5.00;99.90
23671;DHT22;12012;51.998;7.614;2023-01-10T06:01:01;5.00;99.90
23671;DHT22;12012;51.998;7.614;2023-01-10T06:03:27;5.00;99.90
23671;DHT22;12012;51.998;7.614;2023-01-10T06:05:53;5.00;99.90
23671;DHT22;12012;51.998;7.614;2023-01-10T06:08:19;5.00;99.90
23671;DHT22;12012;51.998;7.614;2023-01-10T06:10:45;5.00;99.90
23671;DHT22;12012;51.998;7.614;2023-01-10T06:13:11;5.00;99.90
23671;DHT22;12012;51.998;7.614;2023-01-10T06:15:37;5.10;99.90
23671;DHT22;12012;51.998;7.614;2023-01-10T06:18:03;5.10;99.90
23671;DHT22;12012;51.998;7.614;2023-01-10T06:20:29;5.10;99.90
23671;DHT22;12012;51.998;7.614;2023-01-10T06:22:54;5.10;99.90
23671;DHT22;12012;51.998;7.614;2023-01-10T06:25:21;5.10;99.90
23671;DHT22;12012;51.998;7.614;2023-01-10T06:27:46;5.10;99.90
23671;DHT22;12012;51.998;7.614;2023-01-10T06:30:12;5.20;99.90
23671;DHT22;12012;51.998;7.614;2023-01-10T06:32:38;5.20;99.90
23671;DHT22;12012;51.998;7.614;2023-01-10T06:35:05;5.20;99.90
23671;DHT22;12012;51.998;7.614;2023-01-10T06:37:31;5.20;99.90
23671;DHT22;12012;51.998;7.614;2023-01-10T06:39:56;5.20;99.90
23671;DHT22;12012;51.998;7.614;2023-01-10T06:42:22;5.20;99.90
23671;DHT22;12012;51.998;7.614;2023-01-10T06:44:48;5.10;99.90
23671;DHT22;12012;51.998;7.614;2023-01-10T06:47:13;5.10;99.90
23671;DHT22;12012;51.998;7.614;2023-01-10T06:49:39;5.10;99.90
23671;DHT22;12012;51.998;7.614;2023-01-10T06:52:04;5.00;99.90
23671;DHT22;12012;51.998;7.614;2023-01-10T06:54:30;5.00;99.90
23671;DHT22;12012;51.998;7.614;2023-01-10T06:56:55;5.00;99.90
23671;DHT22;12012;51.998;7.614;2023-01-10T06:59:21;5.00;99.90
23671;DHT22;12012;51.998;7.614;2023-01-10T07:01:46;5.00;99.90
23671;DHT22;12012;51.998;7.614;2023-01-10T07:04:12;5.00;99.90
23671;DHT22;12012;51.998;7.614;2023-01-10T07:06:38;4.90;99.90
23671;DHT22;12012;51.998;7.614;2023-01-10T07:09:05;4.90;99.90
23671;DHT22;12012;51.998;7.614;2023-01-10T07:11:31;4.90;99.90
23671;DHT22;12012;51.998;7.614;2023-01-10T07:13:57;4.90;99.90
23671;DHT22;12012;51.998;7.614;2023-01-10T07:16:22;4.80;99.90
23671;DHT22;12012;51.998;7.614;2023-01-10T07:18:48;4.80;99.90
23671;DHT22;12012;51.998;7.614;2023-01-10T07:21:13;4.80;99.90
23671;DHT22;12012;51.998;7.614;2023-01-10T07:23:41;4.80;99.90
23671;DHT22;12012;51.998;7.614;2023-01-10T07:26:09;4.80;99.90
23671;DHT22;12012;51.998;7.614;2023-01-10T07:28:35;4.80;99.90
23671;DHT22;12012;51.998;7.614;2023-01-10T07:31:02;4.80;99.90
23671;DHT22;12012;51.998;7.614;2023-01-10T07:33:28;4.80;99.90
23671;DHT22;12012;51.998;7.614;2023-01-10T07:35:54;4.80;99.90
23671;DHT22;12012;51.998;7.614;2023-01-10T07:38:20;4.80;99.90
23671;DHT22;12012;51.998;7.614;2023-01-10T07:40:45;4.80;99.90
23671;DHT22;12012;51.998;7.614;2023-01-10T07:43:11;4.90;99.90
23671;DHT22;12012;51.998;7.614;2023-01-10T07:45:37;4.90;99.90
23671;DHT22;12012;51.998;7.614;2023-01-10T07:48:03;5.00;99.90
23671;DHT22;12012;51.998;7.614;2023-01-10T07:50:32;5.00;99.90
23671;DHT22;12012;51.998;7.614;2023-01-10T07:52:58;5.10;99.90
23671;DHT22;12012;51.998;7.614;2023-01-10T07:55:24;5.10;99.90
23671;DHT22;12012;51.998;7.614;2023-01-10T07:57:50;5.10;99.90
23671;DHT22;12012;51.998;7.614;2023-01-10T08:00:17;5.20;99.90
23671;DHT22;12012;51.998;7.614;2023-01-10T08:02:42;5.20;99.90
23671;DHT22;12012;51.998;7.614;2023-01-10T08:05:08;5.30;99.90
23671;DHT22;12012;51.998;7.614;2023-01-10T08:07:35;5.30;99.90
23671;DHT22;12012;51.998;7.614;2023-01-10T08:10:00;5.30;99.90
23671;DHT22;12012;51.998;7.614;2023-01-10T08:12:26;5.30;99.90
23671;DHT22;12012;51.998;7.614;2023-01-10T08:14:52;5.30;99.90
23671;DHT22;12012;51.998;7.614;2023-01-10T08:17:18;5.40;99.90
23671;DHT22;12012;51.998;7.614;2023-01-10T08:19:44;5.40;99.80
23671;DHT22;12012;51.998;7.614;2023-01-10T08:22:11;5.40;99.50
23671;DHT22;12012;51.998;7.614;2023-01-10T08:24:36;5.40;99.40
23671;DHT22;12012;51.998;7.614;2023-01-10T08:27:02;5.40;99.00
23671;DHT22;12012;51.998;7.614;2023-01-10T08:29:28;5.40;99.00
23671;DHT22;12012;51.998;7.614;2023-01-10T08:31:54;5.50;98.90
23671;DHT22;12012;51.998;7.614;2023-01-10T08:34:20;5.50;99.10
23671;DHT22;12012;51.998;7.614;2023-01-10T08:36:49;5.50;98.90
23671;DHT22;12012;51.998;7.614;2023-01-10T08:39:15;5.60;99.00
23671;DHT22;12012;51.998;7.614;2023-01-10T08:41:40;5.60;98.80
23671;DHT22;12012;51.998;7.614;2023-01-10T08:44:06;5.60;98.80
23671;DHT22;12012;51.998;7.614;2023-01-10T08:46:32;5.70;98.50
23671;DHT22;12012;51.998;7.614;2023-01-10T08:48:57;5.70;98.20
23671;DHT22;12012;51.998;7.614;2023-01-10T08:51:23;5.70;98.00
23671;DHT22;12012;51.998;7.614;2023-01-10T08:53:49;5.70;97.90
23671;DHT22;12012;51.998;7.614;2023-01-10T08:56:14;5.70;97.70
23671;DHT22;12012;51.998;7.614;2023-01-10T08:58:40;5.80;97.30
23671;DHT22;12012;51.998;7.614;2023-01-10T09:01:06;5.80;96.90
23671;DHT22;12012;51.998;7.614;2023-01-10T09:03:32;5.80;97.20
23671;DHT22;12012;51.998;7.614;2023-01-10T09:05:59;5.90;96.50
23671;DHT22;12012;51.998;7.614;2023-01-10T09:08:25;6.00;98.30
23671;DHT22;12012;51.998;7.614;2023-01-10T09:10:51;6.10;97.70
23671;DHT22;12012;51.998;7.614;2023-01-10T09:13:16;6.20;94.70
23671;DHT22;12012;51.998;7.614;2023-01-10T09:15:42;6.20;92.30
23671;DHT22;12012;51.998;7.614;2023-01-10T09:18:11;6.20;92.10
23671;DHT22;12012;51.998;7.614;2023-01-10T09:20:39;6.20;91.10
23671;DHT22;12012;51.998;7.614;2023-01-10T09:23:06;6.30;91.40
23671;DHT22;12012;51.998;7.614;2023-01-10T09:25:33;6.30;90.10
23671;DHT22;12012;51.998;7.614;2023-01-10T09:28:00;6.30;88.00
23671;DHT22;12012;51.998;7.614;2023-01-10T09:30:28;6.30;87.40
23671;DHT22;12012;51.998;7.614;2023-01-10T09:32:55;6.20;87.80
23671;DHT22;12012;51.998;7.614;2023-01-10T09:35:22;6.20;87.00
23671;DHT22;12012;51.998;7.614;2023-01-10T09:37:49;6.20;87.80
23671;DHT22;12012;51.998;7.614;2023-01-10T09:40:16;6.30;85.40
23671;DHT22;12012;51.998;7.614;2023-01-10T09:43:16;6.40;84.70
23671;DHT22;12012;51.998;7.614;2023-01-10T09:53:58;6.50;84.00
23671;DHT22;12012;51.998;7.614;2023-01-10T09:56:27;6.60;85.20
23671;DHT22;12012;51.998;7.614;2023-01-10T09:58:53;6.70;84.80
23671;DHT22;12012;51.998;7.614;2023-01-10T10:01:23;6.80;82.00
23671;DHT22;12012;51.998;7.614;2023-01-10T10:06:25;7.10;73.70
23671;DHT22;12012;51.998;7.614;2023-01-10T10:08:51;7.10;74.20
23671;DHT22;12012;51.998;7.614;2023-01-10T10:11:33;7.10;70.60
23671;DHT22;12012;51.998;7.614;2023-01-10T10:25:03;7.90;55.80
23671;DHT22;12012;51.998;7.614;2023-01-10T10:27:45;8.30;51.00
23671;DHT22;12012;51.998;7.614;2023-01-10T10:33:08;8.60;47.90
23671;DHT22;12012;51.998;7.614;2023-01-10T10:36:02;8.80;30.10
23671;DHT22;12012;51.998;7.614;2023-01-10T10:38:32;8.90;36.50
23671;DHT22;12012;51.998;7.614;2023-01-10T10:40:59;9.00;36.40
23671;DHT22;12012;51.998;7.614;2023-01-10T10:43:31;9.10;23.40
23671;DHT22;12012;51.998;7.614;2023-01-10T10:48:47;9.30;6.00
23671;DHT22;12012;51.998;7.614;2023-01-10T10:51:25;9.50;1.00
23671;DHT22;12012;51.998;7.614;2023-01-10T10:53:53;9.70;1.00
23671;DHT22;12012;51.998;7.614;2023-01-10T10:56:22;10.00;1.00
23671;DHT22;12012;51.998;7.614;2023-01-10T10:58:50;10.20;1.00
23671;DHT22;12012;51.998;7.614;2023-01-10T11:01:18;10.40;1.00
23671;DHT22;12012;51.998;7.614;2023-01-10T11:03:54;10.60;1.00
23671;DHT22;12012;51.998;7.614;2023-01-10T11:06:22;10.70;1.00
23671;DHT22;12012;51.998;7.614;2023-01-10T11:08:50;10.70;1.00
23671;DHT22;12012;51.998;7.614;2023-01-10T11:11:21;10.70;1.00
23671;DHT22;12012;51.998;7.614;2023-01-10T11:13:53;10.60;1.00
23671;DHT22;12012;51.998;7.614;2023-01-10T11:16:25;10.20;1.00
23671;DHT22;12012;51.998;7.614;2023-01-10T11:21:40;9.60;1.00
23671;DHT22;12012;51.998;7.614;2023-01-10T11:24:42;9.50;99.90
23671;DHT22;12012;51.998;7.614;2023-01-10T11:27:17;9.40;99.90
23671;DHT22;12012;51.998;7.614;2023-01-10T11:29:46;9.70;99.90
23671;DHT22;12012;51.998;7.614;2023-01-10T11:32:16;10.20;99.90
23671;DHT22;12012;51.998;7.614;2023-01-10T11:34:52;10.50;1.00
23671;DHT22;12012;51.998;7.614;2023-01-10T11:37:22;10.50;1.00
23671;DHT22;12012;51.998;7.614;2023-01-10T11:40:19;10.40;99.90
23671;DHT22;12012;51.998;7.614;2023-01-10T11:42:47;10.00;99.90
23671;DHT22;12012;51.998;7.614;2023-01-10T11:48:38;9.30;99.90
23671;DHT22;12012;51.998;7.614;2023-01-10T11:50:38;9.10;99.90
23671;DHT22;12012;51.998;7.614;2023-01-10T11:53:05;8.90;1.00
23671;DHT22;12012;51.998;7.614;2023-01-10T11:55:33;8.80;38.40
23671;DHT22;12012;51.998;7.614;2023-01-10T12:00:40;8.70;99.90
23671;DHT22;12012;51.998;7.614;2023-01-10T12:05:55;8.60;99.90
23671;DHT22;12012;51.998;7.614;2023-01-10T12:08:25;8.70;99.90
23671;DHT22;12012;51.998;7.614;2023-01-10T12:11:03;8.70;99.90
23671;DHT22;12012;51.998;7.614;2023-01-10T12:13:41;8.60;99.90
23671;DHT22;12012;51.998;7.614;2023-01-10T12:16:34;8.60;99.90
23671;DHT22;12012;51.998;7.614;2023-01-10T12:19:02;8.60;99.90
23671;DHT22;12012;51.998;7.614;2023-01-10T12:21:42;8.50;99.90
23671;DHT22;12012;51.998;7.614;2023-01-10T12:24:21;8.40;1.00
23671;DHT22;12012;51.998;7.614;2023-01-10T12:26:49;8.40;1.00
23671;DHT22;12012;51.998;7.614;2023-01-10T12:29:21;8.40;1.00
23671;DHT22;12012;51.998;7.614;2023-01-10T12:31:50;8.40;99.90
23671;DHT22;12012;51.998;7.614;2023-01-10T12:34:19;8.40;99.90
23671;DHT22;12012;51.998;7.614;2023-01-10T12:36:59;8.50;99.90
23671;DHT22;12012;51.998;7.614;2023-01-10T12:39:31;8.50;99.90
23671;DHT22;12012;51.998;7.614;2023-01-10T12:45:32;8.50;1.00
23671;DHT22;12012;51.998;7.614;2023-01-10T12:48:11;8.50;99.90
23671;DHT22;12012;51.998;7.614;2023-01-10T12:50:41;8.50;19.80
23671;DHT22;12012;51.998;7.614;2023-01-10T12:55:37;8.50;1.00
23671;DHT22;12012;51.998;7.614;2023-01-10T12:58:05;8.40;85.80
23671;DHT22;12012;51.998;7.614;2023-01-10T13:00:35;8.40;99.90
23671;DHT22;12012;51.998;7.614;2023-01-10T13:03:05;8.40;99.90
23671;DHT22;12012;51.998;7.614;2023-01-10T13:05:34;8.40;99.90
23671;DHT22;12012;51.998;7.614;2023-01-10T13:08:09;8.40;99.90
23671;DHT22;12012;51.998;7.614;2023-01-10T13:10:41;8.30;99.90
23671;DHT22;12012;51.998;7.614;2023-01-10T13:16:02;8.30;99.90
23671;DHT22;12012;51.998;7.614;2023-01-10T13:18:31;8.20;99.90
23671;DHT22;12012;51.998;7.614;2023-01-10T13:21:10;8.20;99.90
23671;DHT22;12012;51.998;7.614;2023-01-10T13:23:44;8.20;99.90
23671;DHT22;12012;51.998;7.614;2023-01-10T13:26:11;8.10;99.90
23671;DHT22;12012;51.998;7.614;2023-01-10T13:28:39;8.10;1.00
23671;DHT22;12012;51.998;7.614;2023-01-10T13:31:32;8.10;99.90
23671;DHT22;12012;51.998;7.614;2023-01-10T13:34:03;8.10;99.90
23671;DHT22;12012;51.998;7.614;2023-01-10T13:36:37;8.10;1.00
23671;DHT22;12012;51.998;7.614;2023-01-10T13:39:05;8.10;99.90
23671;DHT22;12012;51.998;7.614;2023-01-10T13:52:53;8.10;1.00
23671;DHT22;12012;51.998;7.614;2023-01-10T13:55:26;8.10;1.00
23671;DHT22;12012;51.998;7.614;2023-01-10T13:57:57;8.00;1.00
23671;DHT22;12012;51.998;7.614;2023-01-10T14:00:42;8.10;1.00
23671;DHT22;12012;51.998;7.614;2023-01-10T14:09:02;8.00;1.00
23671;DHT22;12012;51.998;7.614;2023-01-10T14:11:53;8.00;99.90
23671;DHT22;12012;51.998;7.614;2023-01-10T14:14:27;7.90;99.90
23671;DHT22;12012;51.998;7.614;2023-01-10T14:17:09;7.90;99.90
23671;DHT22;12012;51.998;7.614;2023-01-10T14:19:36;7.90;99.90
23671;DHT22;12012;51.998;7.614;2023-01-10T14:22:03;7.90;99.90
23671;DHT22;12012;51.998;7.614;2023-01-10T14:24:41;7.90;99.90
23671;DHT22;12012;51.998;7.614;2023-01-10T14:27:13;7.90;99.90
23671;DHT22;12012;51.998;7.614;2023-01-10T14:29:47;7.90;99.90
23671;DHT22;12012;51.998;7.614;2023-01-10T14:32:29;7.90;99.90
23671;DHT22;12012;51.998;7.614;2023-01-10T14:34:57;7.90;99.90
23671;DHT22;12012;51.998;7.614;2023-01-10T14:42:40;7.80;99.90
23671;DHT22;12012;51.998;7.614;2023-01-10T14:45:20;7.80;99.90
23671;DHT22;12012;51.998;7.614;2023-01-10T14:47:48;7.70;89.10
23671;DHT22;12012;51.998;7.614;2023-01-10T14:50:28;7.70;26.70
23671;DHT22;12012;51.998;7.614;2023-01-10T14:52:57;7.70;19.90
23671;DHT22;12012;51.998;7.614;2023-01-10T14:55:22;7.70;58.00
23671;DHT22;12012;51.998;7.614;2023-01-10T14:57:59;7.70;1.00
23671;DHT22;12012;51.998;7.614;2023-01-10T15:02:50;7.70;66.90
23671;DHT22;12012;51.998;7.614;2023-01-10T15:05:22;7.70;99.90
23671;DHT22;12012;51.998;7.614;2023-01-10T15:07:54;7.70;70.50
23671;DHT22;12012;51.998;7.614;2023-01-10T15:10:23;7.70;1.00
23671;DHT22;12012;51.998;7.614;2023-01-10T15:12:56;7.70;99.90
23671;DHT22;12012;51.998;7.614;2023-01-10T15:15:34;7.70;99.90
23671;DHT22;12012;51.998;7.614;2023-01-10T15:18:05;7.70;1.00
23671;DHT22;12012;51.998;7.614;2023-01-10T15:20:31;7.70;99.90
23671;DHT22;12012;51.998;7.614;2023-01-10T15:22:59;7.60;99.90
23671;DHT22;12012;51.998;7.614;2023-01-10T15:25:34;7.60;99.90
23671;DHT22;12012;51.998;7.614;2023-01-10T15:28:03;7.60;99.90
23671;DHT22;12012;51.998;7.614;2023-01-10T15:30:34;7.60;16.10
23671;DHT22;12012;51.998;7.614;2023-01-10T15:33:04;7.70;1.00
23671;DHT22;12012;51.998;7.614;2023-01-10T15:35:32;7.60;1.00
23671;DHT22;12012;51.998;7.614;2023-01-10T15:38:06;7.70;1.00
23671;DHT22;12012;51.998;7.614;2023-01-10T15:40:34;7.70;99.90
23671;DHT22;12012;51.998;7.614;2023-01-10T15:45:43;7.70;99.90
23671;DHT22;12012;51.998;7.614;2023-01-10T15:48:32;7.70;99.90
23671;DHT22;12012;51.998;7.614;2023-01-10T15:50:59;7.70;91.00
23671;DHT22;12012;51.998;7.614;2023-01-10T15:56:27;7.70;56.90
23671;DHT22;12012;51.998;7.614;2023-01-10T15:58:54;7.70;1.00
23671;DHT22;12012;51.998;7.614;2023-01-10T16:01:21;7.70;1.00
23671;DHT22;12012;51.998;7.614;2023-01-10T16:03:50;7.70;1.00
23671;DHT22;12012;51.998;7.614;2023-01-10T16:06:22;7.60;1.00
23671;DHT22;12012;51.998;7.614;2023-01-10T16:08:51;7.70;1.00
23671;DHT22;12012;51.998;7.614;2023-01-10T16:11:32;7.60;99.90
23671;DHT22;12012;51.998;7.614;2023-01-10T16:14:18;7.70;99.90
23671;DHT22;12012;51.998;7.614;2023-01-10T16:16:44;7.70;99.90
23671;DHT22;12012;51.998;7.614;2023-01-10T16:19:09;7.60;99.90
23671;DHT22;12012;51.998;7.614;2023-01-10T16:21:41;7.70;99.90
23671;DHT22;12012;51.998;7.614;2023-01-10T16:24:20;7.60;99.90
23671;DHT22;12012;51.998;7.614;2023-01-10T16:26:47;7.70;99.90
23671;DHT22;12012;51.998;7.614;2023-01-10T16:29:13;7.60;99.90
23671;DHT22;12012;51.998;7.614;2023-01-10T16:31:39;7.60;99.90
23671;DHT22;12012;51.998;7.614;2023-01-10T16:34:05;7.60;99.90
23671;DHT22;12012;51.998;7.614;2023-01-10T16:36:31;7.60;99.90
23671;DHT22;12012;51.998;7.614;2023-01-10T16:38:56;7.60;99.90
23671;DHT22;12012;51.998;7.614;2023-01-10T16:41:22;7.60;99.90
23671;DHT22;12012;51.998;7.614;2023-01-10T16:44:07;7.60;99.90
23671;DHT22;12012;51.998;7.614;2023-01-10T16:46:32;7.60;99.90
23671;DHT22;12012;51.998;7.614;2023-01-10T16:48:58;7.50;99.90
23671;DHT22;12012;51.998;7.614;2023-01-10T16:51:26;7.60;99.90
23671;DHT22;12012;51.998;7.614;2023-01-10T16:53:53;7.50;99.90
23671;DHT22;12012;51.998;7.614;2023-01-10T16:56:23;7.50;99.90
23671;DHT22;12012;51.998;7.614;2023-01-10T16:58:50;7.50;99.90
23671;DHT22;12012;51.998;7.614;2023-01-10T17:01:21;7.50;99.90
23671;DHT22;12012;51.998;7.614;2023-01-10T17:03:50;7.50;99.90
23671;DHT22;12012;51.998;7.614;2023-01-10T17:06:16;7.50;99.90
23671;DHT22;12012;51.998;7.614;2023-01-10T17:08:44;7.50;99.90
23671;DHT22;12012;51.998;7.614;2023-01-10T17:11:21;7.50;99.90
23671;DHT22;12012;51.998;7.614;2023-01-10T17:13:47;7.50;99.90
23671;DHT22;12012;51.998;7.614;2023-01-10T17:16:13;7.50;99.90
23671;DHT22;12012;51.998;7.614;2023-01-10T17:18:40;7.40;99.90
23671;DHT22;12012;51.998;7.614;2023-01-10T17:21:14;7.40;99.90
23671;DHT22;12012;51.998;7.614;2023-01-10T17:23:40;7.40;99.90
23671;DHT22;12012;51.998;7.614;2023-01-10T17:26:06;7.40;99.90
23671;DHT22;12012;51.998;7.614;2023-01-10T17:28:32;7.30;99.90
23671;DHT22;12012;51.998;7.614;2023-01-10T17:30:58;7.30;1.00
23671;DHT22;12012;51.998;7.614;2023-01-10T17:33:25;7.20;1.00
23671;DHT22;12012;51.998;7.614;2023-01-10T17:35:53;7.20;99.90
23671;DHT22;12012;51.998;7.614;2023-01-10T17:38:20;7.10;99.90
23671;DHT22;12012;51.998;7.614;2023-01-10T17:40:47;7.00;99.90
23671;DHT22;12012;51.998;7.614;2023-01-10T17:43:14;7.00;64.30
23671;DHT22;12012;51.998;7.614;2023-01-10T17:45:44;6.90;99.90
23671;DHT22;12012;51.998;7.614;2023-01-10T17:48:11;6.70;99.90
23671;DHT22;12012;51.998;7.614;2023-01-10T17:50:39;6.60;99.90
23671;DHT22;12012;51.998;7.614;2023-01-10T17:53:04;6.50;92.20
23671;DHT22;12012;51.998;7.614;2023-01-10T17:55:30;6.40;19.40
23671;DHT22;12012;51.998;7.614;2023-01-10T17:57:56;6.40;1.00